Time;durP1;ratioP1;P1;durP2;ratioP2;P2;SDS_P1;SDS_P2;PMS_P1;PMS_P2;Temp;Humidity;BMP_temperature;BMP_pressure;BME280_temperature;BME280_humidity;BME280_pressure;Samples;Min_cycle;Max_cycle;Signal;HPM_P1;HPM_P2
2022/08/06 00:00:11;;;;;;;3.17;2.55;;;18.60;99.90;;;;;;2083977;28;20037;-74
2022/08/06 00:01:15;;;;;;;4.78;2.92;;;18.60;99.90;;;;;;2079074;28;20048;-75
2022/08/06 00:02:19;;;;;;;4.60;3.40;;;18.60;99.90;;;;;;2068875;28;20034;-75
2022/08/06 00:05:43;;;;;;;6.32;3.50;;;18.60;99.90;;;;;;2100608;28;20449;-75
2022/08/06 00:06:43;;;;;;;3.30;3.00;;;18.60;99.90;;;;;;2099858;28;20021;-76
2022/08/06 00:07:44;;;;;;;3.50;3.20;;;18.60;99.90;;;;;;2098656;28;20429;-75
2022/08/06 00:08:45;;;;;;;5.05;3.25;;;18.60;99.90;;;;;;2099261;28;20040;-75
2022/08/06 00:09:46;;;;;;;3.95;3.17;;;18.60;99.90;;;;;;2099476;28;20021;-76
2022/08/06 00:10:47;;;;;;;3.85;3.45;;;18.60;99.90;;;;;;2082662;28;20042;-75
2022/08/06 00:11:55;;;;;;;3.60;3.03;;;18.50;99.90;;;;;;2083853;28;20692;-74
2022/08/06 00:12:57;;;;;;;3.67;2.90;;;18.60;99.90;;;;;;2099812;28;20032;-77
2022/08/06 00:13:58;;;;;;;5.10;3.50;;;18.60;99.90;;;;;;2090253;28;20036;-76
2022/08/06 00:14:59;;;;;;;2.80;2.60;;;18.50;99.90;;;;;;2081825;28;20589;-74
2022/08/06 00:16:00;;;;;;;3.35;2.80;;;18.50;99.90;;;;;;2088844;28;20029;-74
2022/08/06 00:17:01;;;;;;;4.88;2.92;;;18.50;99.90;;;;;;2097663;28;20037;-74
2022/08/06 00:18:01;;;;;;;4.53;3.10;;;18.50;99.90;;;;;;2098135;28;20108;-74
2022/08/06 00:19:02;;;;;;;5.57;3.03;;;18.50;99.90;;;;;;2097492;28;20032;-74
2022/08/06 00:20:04;;;;;;;3.28;2.80;;;18.50;99.90;;;;;;2097589;28;20035;-74
2022/08/06 00:21:05;;;;;;;3.05;2.72;;;18.60;99.90;;;;;;2097750;28;20078;-74
2022/08/06 00:22:05;;;;;;;6.43;3.22;;;18.60;99.90;;;;;;2097485;28;20100;-74
2022/08/06 00:23:06;;;;;;;3.65;3.08;;;18.60;99.90;;;;;;2097182;28;20542;-74
2022/08/06 00:24:07;;;;;;;4.47;2.90;;;18.50;99.90;;;;;;2098945;28;20039;-74
2022/08/06 00:25:10;;;;;;;3.75;3.20;;;18.50;99.90;;;;;;2091131;28;20304;-75
2022/08/06 00:26:10;;;;;;;5.07;3.15;;;18.50;99.90;;;;;;2082063;28;20049;-76
2022/08/06 00:27:11;;;;;;;4.93;3.30;;;18.40;99.90;;;;;;2082694;28;20037;-74
2022/08/06 00:28:12;;;;;;;4.10;3.03;;;18.40;99.90;;;;;;2081514;28;20025;-74
2022/08/06 00:29:13;;;;;;;4.15;3.10;;;18.40;99.90;;;;;;2089739;28;20033;-77
2022/08/06 00:30:14;;;;;;;5.45;3.10;;;18.40;99.90;;;;;;2097553;28;20441;-74
2022/08/06 00:31:14;;;;;;;5.65;3.75;;;18.40;99.90;;;;;;2097987;28;20036;-74
2022/08/06 00:32:15;;;;;;;4.40;3.08;;;18.30;99.90;;;;;;2088987;28;20660;-75
2022/08/06 00:33:16;;;;;;;4.18;3.33;;;18.30;99.90;;;;;;2088589;28;20481;-76
2022/08/06 00:34:17;;;;;;;4.90;3.63;;;18.30;99.90;;;;;;2097534;28;20044;-76
2022/08/06 00:35:18;;;;;;;3.47;3.17;;;18.20;99.90;;;;;;2097853;28;20032;-76
2022/08/06 00:36:19;;;;;;;4.03;3.30;;;18.20;99.90;;;;;;2097390;28;20033;-76
2022/08/06 00:37:19;;;;;;;5.22;3.33;;;18.20;99.90;;;;;;2098587;28;20033;-75
2022/08/06 00:38:20;;;;;;;4.57;3.65;;;18.20;99.90;;;;;;2097341;28;20037;-76
2022/08/06 00:39:21;;;;;;;4.22;3.53;;;18.20;99.90;;;;;;2097663;28;20033;-75
2022/08/06 00:40:22;;;;;;;5.18;3.80;;;18.20;99.90;;;;;;2097349;28;20054;-75
2022/08/06 00:41:23;;;;;;;4.90;3.65;;;18.10;99.90;;;;;;2098373;28;20021;-76
2022/08/06 00:42:24;;;;;;;3.75;3.42;;;18.00;99.90;;;;;;2088563;28;20680;-75
2022/08/06 00:43:26;;;;;;;6.57;3.83;;;18.10;99.90;;;;;;2088459;28;20635;-76
2022/08/06 00:44:27;;;;;;;4.10;3.53;;;18.00;99.90;;;;;;2088155;28;20059;-75
2022/08/06 00:45:29;;;;;;;4.53;3.33;;;18.00;99.90;;;;;;2088201;28;20651;-75
2022/08/06 00:46:30;;;;;;;4.82;4.00;;;18.00;99.90;;;;;;2097133;28;20384;-75
2022/08/06 00:47:30;;;;;;;3.97;3.63;;;18.10;99.90;;;;;;2080146;28;20036;-75
2022/08/06 00:48:31;;;;;;;4.30;3.90;;;18.00;99.90;;;;;;2079907;28;20032;-75
2022/08/06 00:49:32;;;;;;;4.32;3.92;;;18.00;99.90;;;;;;2097593;28;20716;-76
2022/08/06 00:50:34;;;;;;;4.57;3.80;;;18.00;99.90;;;;;;2099406;28;20367;-75
2022/08/06 00:51:34;;;;;;;3.80;3.50;;;17.90;99.90;;;;;;2097228;28;20033;-76
2022/08/06 00:52:35;;;;;;;3.75;3.40;;;17.90;99.90;;;;;;2097048;28;20037;-75
2022/08/06 00:53:36;;;;;;;5.72;4.10;;;17.80;99.90;;;;;;2098223;28;20043;-75
2022/08/06 00:54:37;;;;;;;5.28;4.13;;;17.80;99.90;;;;;;2101468;28;20059;-75
2022/08/06 00:55:44;;;;;;;5.32;3.70;;;17.90;99.90;;;;;;2095064;28;20021;-74
2022/08/06 00:56:45;;;;;;;5.38;3.90;;;17.90;99.90;;;;;;2089416;28;20112;-74
2022/08/06 00:57:46;;;;;;;5.25;3.95;;;17.90;99.90;;;;;;2099126;28;20028;-74
2022/08/06 00:58:47;;;;;;;6.25;3.92;;;17.90;99.90;;;;;;2089362;28;20033;-76
2022/08/06 00:59:48;;;;;;;5.13;4.13;;;17.90;99.90;;;;;;2090172;28;20113;-73
2022/08/06 01:00:48;;;;;;;4.20;3.80;;;17.90;99.90;;;;;;2099456;28;20036;-73
2022/08/06 01:01:49;;;;;;;5.18;3.67;;;17.80;99.90;;;;;;2108046;28;20026;-75
2022/08/06 01:02:50;;;;;;;4.10;3.70;;;17.80;99.90;;;;;;2100864;28;20048;-74
2022/08/06 01:03:51;;;;;;;5.00;4.10;;;17.80;99.90;;;;;;2097420;28;20035;-76
2022/08/06 01:04:52;;;;;;;4.60;4.20;;;17.80;99.90;;;;;;2098794;28;20033;-75
2022/08/06 01:05:54;;;;;;;5.03;3.53;;;17.90;99.90;;;;;;2090873;28;20049;-76
2022/08/06 01:06:55;;;;;;;6.10;4.03;;;17.90;99.90;;;;;;2084003;28;20076;-76
2022/08/06 01:07:55;;;;;;;5.57;4.43;;;17.90;99.90;;;;;;2080971;28;20021;-75
2022/08/06 01:08:56;;;;;;;6.15;4.30;;;18.00;99.90;;;;;;2090033;28;20451;-75
2022/08/06 01:09:57;;;;;;;4.97;4.10;;;17.90;99.90;;;;;;2097331;28;20032;-75
2022/08/06 01:10:57;;;;;;;4.93;4.20;;;17.90;99.90;;;;;;2088346;28;20079;-75
2022/08/06 01:11:58;;;;;;;4.75;4.13;;;18.00;99.90;;;;;;2088359;28;20029;-75
2022/08/06 01:12:59;;;;;;;4.47;3.95;;;17.90;99.90;;;;;;2097070;28;20034;-76
2022/08/06 01:14:00;;;;;;;5.50;4.00;;;17.90;99.90;;;;;;2097688;28;20035;-76
2022/08/06 01:15:01;;;;;;;6.05;4.45;;;18.00;99.90;;;;;;2090376;28;20038;-76
2022/08/06 01:16:42;;;;;;;5.10;4.15;;;18.00;99.90;;;;;;2083054;28;20033;-75
2022/08/06 01:17:49;;;;;;;4.43;4.03;;;18.00;99.90;;;;;;2079383;28;20034;-74
2022/08/06 01:19:28;;;;;;;4.53;3.75;;;18.00;99.90;;;;;;2074896;28;20092;-75
2022/08/06 01:21:00;;;;;;;5.63;4.50;;;18.00;99.90;;;;;;2043256;29;20039;-76
2022/08/06 01:22:22;;;;;;;4.60;4.20;;;18.10;99.90;;;;;;2041412;29;20031;-75
2022/08/06 01:23:57;;;;;;;4.30;3.80;;;18.10;99.90;;;;;;2091471;28;20169;-75
2022/08/06 01:25:16;;;;;;;4.32;3.85;;;18.10;99.90;;;;;;2081010;28;20040;-76
2022/08/06 01:26:38;;;;;;;4.38;3.97;;;18.10;99.90;;;;;;2082544;28;20128;-76
2022/08/06 01:28:01;;;;;;;4.80;3.85;;;18.10;99.90;;;;;;2091724;28;20032;-74
2022/08/06 01:29:19;;;;;;;4.85;4.18;;;18.10;99.90;;;;;;2097375;28;20021;-75
2022/08/06 01:30:24;;;;;;;4.18;3.75;;;18.20;99.90;;;;;;2097208;28;20039;-76
2022/08/06 01:31:50;;;;;;;5.57;3.97;;;18.20;99.90;;;;;;2088545;28;20032;-76
2022/08/06 01:32:53;;;;;;;5.30;4.43;;;18.20;99.90;;;;;;2092460;28;20024;-74
2022/08/06 01:33:59;;;;;;;4.68;4.25;;;18.20;99.90;;;;;;2087846;28;20021;-74
2022/08/06 01:35:04;;;;;;;4.93;4.45;;;18.20;99.90;;;;;;2088765;28;20055;-74
2022/08/06 01:36:09;;;;;;;4.00;3.70;;;18.20;99.90;;;;;;2088948;28;20403;-73
2022/08/06 01:37:48;;;;;;;4.47;3.72;;;18.20;99.90;;;;;;2079862;28;20507;-74
2022/08/06 01:38:52;;;;;;;4.38;4.00;;;18.20;99.90;;;;;;2051682;28;20802;-75
2022/08/06 01:39:58;;;;;;;6.55;4.57;;;18.20;99.90;;;;;;2090195;28;20033;-75
2022/08/06 01:41:04;;;;;;;5.10;4.38;;;18.20;99.90;;;;;;2096778;28;20065;-75
2022/08/06 01:42:07;;;;;;;5.00;4.50;;;18.20;99.90;;;;;;2087936;28;20052;-75
2022/08/06 01:43:11;;;;;;;5.00;4.53;;;18.20;99.90;;;;;;2088267;28;20483;-74
2022/08/06 01:44:22;;;;;;;5.00;3.90;;;18.10;99.90;;;;;;2087684;28;20036;-74
2022/08/06 01:45:27;;;;;;;5.68;4.30;;;18.10;99.90;;;;;;2089351;28;20035;-75
2022/08/06 01:46:30;;;;;;;4.47;4.07;;;18.10;99.90;;;;;;2097028;28;20032;-75
2022/08/06 01:47:32;;;;;;;4.50;3.90;;;18.10;99.90;;;;;;2096480;28;20031;-75
2022/08/06 01:48:36;;;;;;;4.97;3.95;;;18.20;99.90;;;;;;2096345;28;20102;-76
2022/08/06 01:49:39;;;;;;;6.97;4.10;;;18.20;99.90;;;;;;2096595;28;20040;-75
2022/08/06 01:50:43;;;;;;;4.57;3.55;;;18.20;99.90;;;;;;2096848;28;20024;-75
2022/08/06 01:51:48;;;;;;;5.50;3.85;;;18.20;99.90;;;;;;2096620;28;20533;-75
2022/08/06 01:52:51;;;;;;;3.95;3.45;;;18.20;99.90;;;;;;2096813;28;20039;-76
2022/08/06 01:53:53;;;;;;;4.35;3.92;;;18.20;99.90;;;;;;2096694;28;20032;-74
2022/08/06 01:54:58;;;;;;;4.53;3.95;;;18.20;99.90;;;;;;2087896;28;20733;-74
2022/08/06 01:56:01;;;;;;;7.07;5.20;;;18.20;99.90;;;;;;2088443;28;20028;-75
2022/08/06 01:57:04;;;;;;;4.93;4.43;;;18.20;99.90;;;;;;2096461;28;20537;-75
2022/08/06 01:58:06;;;;;;;5.05;4.30;;;18.20;99.90;;;;;;2087652;28;20048;-75
2022/08/06 01:59:08;;;;;;;4.40;4.00;;;18.20;99.90;;;;;;2088423;28;20013;-75
2022/08/06 02:00:09;;;;;;;7.93;4.57;;;18.20;99.90;;;;;;2097059;28;20040;-74
2022/08/06 02:01:18;;;;;;;5.13;4.10;;;18.20;99.90;;;;;;2088167;28;20052;-75
2022/08/06 02:02:24;;;;;;;4.43;3.97;;;18.20;99.90;;;;;;2080321;28;20050;-75
2022/08/06 02:03:30;;;;;;;6.00;5.35;;;18.30;99.90;;;;;;2088363;28;20025;-75
2022/08/06 02:04:38;;;;;;;5.53;4.97;;;18.30;99.90;;;;;;2096485;28;20487;-75
2022/08/06 02:05:41;;;;;;;5.00;4.60;;;18.20;99.90;;;;;;2096848;28;20029;-76
2022/08/06 02:06:45;;;;;;;6.72;4.80;;;18.20;99.90;;;;;;2096877;28;20044;-75
2022/08/06 02:07:49;;;;;;;6.47;5.15;;;18.20;99.90;;;;;;2096759;28;20493;-76
2022/08/06 02:08:52;;;;;;;5.32;4.13;;;18.20;99.90;;;;;;2097337;28;20055;-76
2022/08/06 02:09:55;;;;;;;6.20;4.40;;;18.20;99.90;;;;;;2096747;28;20032;-75
2022/08/06 02:10:57;;;;;;;5.28;4.75;;;18.20;99.90;;;;;;2097267;28;20052;-76
2022/08/06 02:12:09;;;;;;;6.18;5.20;;;18.20;99.90;;;;;;2096518;28;20479;-75
2022/08/06 02:13:13;;;;;;;5.50;5.00;;;18.10;99.90;;;;;;2096591;28;20036;-74
2022/08/06 02:14:15;;;;;;;5.43;4.75;;;18.10;99.90;;;;;;2096235;28;20024;-76
2022/08/06 02:15:26;;;;;;;5.15;4.70;;;18.10;99.90;;;;;;2096796;28;20039;-77
2022/08/06 02:16:39;;;;;;;5.18;4.57;;;18.10;99.90;;;;;;2087786;28;20044;-76
2022/08/06 02:17:44;;;;;;;7.93;5.30;;;18.10;99.90;;;;;;2090023;28;20494;-73
2022/08/06 02:18:47;;;;;;;5.30;4.80;;;18.00;99.90;;;;;;2096517;28;20027;-74
2022/08/06 02:19:50;;;;;;;6.53;4.80;;;18.10;99.90;;;;;;2087907;28;20097;-74
2022/08/06 02:20:53;;;;;;;5.80;4.95;;;18.10;99.90;;;;;;2079982;28;20116;-74
2022/08/06 02:21:56;;;;;;;5.70;4.70;;;18.10;99.90;;;;;;2088071;28;20025;-74
2022/08/06 02:22:59;;;;;;;5.97;4.93;;;18.10;99.90;;;;;;2096848;28;20017;-74
2022/08/06 02:24:04;;;;;;;7.13;5.40;;;18.10;99.90;;;;;;2087460;28;20499;-73
2022/08/06 02:25:10;;;;;;;5.00;4.60;;;18.10;99.90;;;;;;2088438;28;20045;-75
2022/08/06 02:26:13;;;;;;;6.32;4.40;;;18.10;99.90;;;;;;2096611;28;20037;-75
2022/08/06 02:27:17;;;;;;;7.30;5.07;;;18.10;99.90;;;;;;2096418;28;20024;-75
2022/08/06 02:28:19;;;;;;;5.43;4.88;;;18.00;99.90;;;;;;2087318;28;20031;-75
2022/08/06 02:29:21;;;;;;;5.20;4.70;;;18.00;99.90;;;;;;2088183;28;20040;-74
2022/08/06 02:30:24;;;;;;;5.20;4.65;;;18.00;99.90;;;;;;2096825;28;20044;-75
2022/08/06 02:31:24;;;;;;;10.35;5.05;;;18.00;99.90;;;;;;2096904;28;20036;-74
2022/08/06 02:32:26;;;;;;;4.90;4.40;;;17.90;99.90;;;;;;2087456;28;20484;-74
2022/08/06 02:33:27;;;;;;;4.93;4.45;;;17.90;99.90;;;;;;2079534;28;20040;-74
2022/08/06 02:34:28;;;;;;;5.35;4.80;;;17.90;99.90;;;;;;2088342;28;20044;-75
2022/08/06 02:35:32;;;;;;;5.43;4.32;;;17.90;99.90;;;;;;2097671;28;20399;-75
2022/08/06 02:36:57;;;;;;;4.63;4.22;;;17.90;99.90;;;;;;2096821;28;20450;-75
2022/08/06 02:38:06;;;;;;;4.78;3.97;;;17.90;99.90;;;;;;2087304;28;20070;-75
2022/08/06 02:39:18;;;;;;;5.18;3.85;;;17.90;99.90;;;;;;2096867;28;20021;-74
2022/08/06 02:40:28;;;;;;;4.45;3.50;;;17.90;99.90;;;;;;2096858;28;20801;-75
2022/08/06 02:41:56;;;;;;;5.45;4.10;;;17.90;99.90;;;;;;2079727;28;20103;-74
2022/08/06 02:43:18;;;;;;;4.35;3.90;;;17.90;99.90;;;;;;2083080;28;20037;-76
2022/08/06 02:44:28;;;;;;;5.95;3.95;;;17.90;99.90;;;;;;2090669;28;20032;-75
2022/08/06 02:45:46;;;;;;;5.65;4.00;;;17.90;99.90;;;;;;2087674;28;20032;-75
2022/08/06 02:46:55;;;;;;;5.22;3.60;;;17.90;99.90;;;;;;2090021;28;20399;-75
2022/08/06 02:48:26;;;;;;;4.93;4.03;;;17.90;99.90;;;;;;2096826;28;20020;-75
2022/08/06 02:49:28;;;;;;;5.75;3.90;;;17.80;99.90;;;;;;2097484;28;20578;-75
2022/08/06 02:50:42;;;;;;;5.28;3.80;;;17.80;99.90;;;;;;2097817;28;20032;-75
2022/08/06 02:51:54;;;;;;;6.80;3.55;;;17.80;99.90;;;;;;2098185;28;20086;-76
2022/08/06 02:53:10;;;;;;;5.60;3.67;;;17.80;99.90;;;;;;2098407;28;20020;-75
2022/08/06 02:54:19;;;;;;;4.30;3.67;;;17.80;99.90;;;;;;2089050;28;20381;-75
2022/08/06 02:55:25;;;;;;;4.88;3.75;;;17.80;99.90;;;;;;2090178;28;20111;-75
2022/08/06 02:56:28;;;;;;;4.65;3.72;;;17.80;99.90;;;;;;2098027;28;20047;-75
2022/08/06 02:57:33;;;;;;;4.13;3.63;;;17.70;99.90;;;;;;2098225;28;20052;-75
2022/08/06 02:58:41;;;;;;;3.45;3.15;;;17.70;99.90;;;;;;2097966;28;20086;-76
2022/08/06 02:59:49;;;;;;;4.95;3.30;;;17.70;99.90;;;;;;2098126;28;20078;-75
2022/08/06 03:00:52;;;;;;;4.90;3.38;;;17.70;99.90;;;;;;2098121;28;20086;-75
2022/08/06 03:01:59;;;;;;;4.95;3.80;;;17.60;99.90;;;;;;2089435;28;20530;-75
2022/08/06 03:03:02;;;;;;;4.40;3.20;;;17.60;99.90;;;;;;2081781;28;20422;-76
2022/08/06 03:04:04;;;;;;;4.57;3.20;;;17.60;99.90;;;;;;2089296;28;20090;-76
2022/08/06 03:05:10;;;;;;;4.28;3.17;;;17.60;99.90;;;;;;2097835;28;20055;-75
2022/08/06 03:06:14;;;;;;;3.97;2.90;;;17.50;99.90;;;;;;2098047;28;20536;-75
2022/08/06 03:07:16;;;;;;;3.42;3.08;;;17.50;99.90;;;;;;2098113;28;20503;-75
2022/08/06 03:08:23;;;;;;;3.30;3.00;;;17.50;99.90;;;;;;2098211;28;20063;-75
2022/08/06 03:09:24;;;;;;;3.78;2.72;;;17.50;99.90;;;;;;2098070;28;20051;-76
2022/08/06 03:10:27;;;;;;;3.42;2.95;;;17.40;99.90;;;;;;2098248;28;20032;-74
2022/08/06 03:11:31;;;;;;;3.65;2.95;;;17.40;99.90;;;;;;2098002;28;20034;-75
2022/08/06 03:12:35;;;;;;;3.10;2.80;;;17.40;99.90;;;;;;2089096;28;20128;-75
2022/08/06 03:13:37;;;;;;;4.00;2.95;;;17.40;99.90;;;;;;2089769;28;20612;-75
2022/08/06 03:14:39;;;;;;;2.78;2.58;;;17.40;99.90;;;;;;2097452;28;20150;-76
2022/08/06 03:15:40;;;;;;;3.00;2.70;;;17.30;99.90;;;;;;2098047;28;20056;-75
2022/08/06 03:16:42;;;;;;;3.58;2.67;;;17.30;99.90;;;;;;2097784;28;20060;-75
2022/08/06 03:17:45;;;;;;;4.30;2.80;;;17.30;99.90;;;;;;2097861;28;20021;-75
2022/08/06 03:18:47;;;;;;;3.30;2.63;;;17.30;99.90;;;;;;2088911;28;20040;-75
2022/08/06 03:19:49;;;;;;;3.35;2.95;;;17.30;99.90;;;;;;2089372;28;20017;-76
2022/08/06 03:20:51;;;;;;;3.65;3.00;;;17.30;99.90;;;;;;2097816;28;20050;-75
2022/08/06 03:21:53;;;;;;;4.32;2.88;;;17.30;99.90;;;;;;2097933;28;20039;-75
2022/08/06 03:22:59;;;;;;;4.78;3.20;;;17.30;99.90;;;;;;2097801;28;20044;-75
2022/08/06 03:24:00;;;;;;;4.30;3.10;;;17.20;99.90;;;;;;2097539;28;20024;-74
2022/08/06 03:25:02;;;;;;;3.47;2.90;;;17.20;99.90;;;;;;2097774;28;20028;-75
2022/08/06 03:26:04;;;;;;;4.75;2.40;;;17.20;99.90;;;;;;2088850;28;20075;-75
2022/08/06 03:27:06;;;;;;;5.47;2.80;;;17.20;99.90;;;;;;2088991;28;20013;-74
2022/08/06 03:28:08;;;;;;;3.03;2.60;;;17.20;99.90;;;;;;2097602;28;20028;-75
2022/08/06 03:29:11;;;;;;;2.97;2.45;;;17.10;99.90;;;;;;2080464;28;20037;-74
2022/08/06 03:30:16;;;;;;;2.70;2.50;;;17.10;99.90;;;;;;2081089;28;20044;-75
2022/08/06 03:31:17;;;;;;;3.22;2.65;;;17.10;99.90;;;;;;2088854;28;20044;-74
2022/08/06 03:32:19;;;;;;;4.90;2.50;;;17.00;99.90;;;;;;2089148;28;20032;-74
2022/08/06 03:33:20;;;;;;;2.88;2.33;;;17.00;99.90;;;;;;2088735;28;20521;-74
2022/08/06 03:34:21;;;;;;;4.53;2.40;;;16.90;99.90;;;;;;2088600;28;20118;-74
2022/08/06 03:35:23;;;;;;;3.42;2.50;;;16.90;99.90;;;;;;2099967;28;20032;-74
2022/08/06 03:36:24;;;;;;;2.33;2.13;;;16.90;99.90;;;;;;2097612;28;20052;-75
2022/08/06 03:37:26;;;;;;;3.45;2.38;;;16.90;99.90;;;;;;2097589;28;20550;-75
2022/08/06 03:38:28;;;;;;;2.70;2.22;;;16.80;99.90;;;;;;2097669;28;20039;-75
2022/08/06 03:39:32;;;;;;;2.88;2.22;;;16.80;99.90;;;;;;2098083;28;20025;-75
2022/08/06 03:40:33;;;;;;;2.22;2.03;;;16.80;99.90;;;;;;2097379;28;20036;-75
2022/08/06 03:41:36;;;;;;;5.32;2.40;;;16.80;99.90;;;;;;2097730;28;20406;-75
2022/08/06 03:42:37;;;;;;;2.83;2.17;;;16.80;99.90;;;;;;2098186;28;20033;-75
2022/08/06 03:43:38;;;;;;;2.53;2.22;;;16.80;99.90;;;;;;2097737;28;20035;-75
2022/08/06 03:44:39;;;;;;;3.95;2.20;;;16.70;99.90;;;;;;2097190;28;20024;-75
2022/08/06 03:45:48;;;;;;;3.42;2.13;;;16.70;99.90;;;;;;2088618;28;20033;-75
2022/08/06 03:46:58;;;;;;;3.25;2.10;;;16.70;99.90;;;;;;2089660;28;20025;-75
2022/08/06 03:48:03;;;;;;;2.20;1.95;;;16.70;99.90;;;;;;2097509;28;20106;-76
2022/08/06 03:49:08;;;;;;;2.53;2.08;;;16.70;99.90;;;;;;2097420;28;20020;-76
2022/08/06 03:50:15;;;;;;;2.30;2.10;;;16.60;99.90;;;;;;2097276;28;20024;-75
2022/08/06 03:51:23;;;;;;;2.13;1.92;;;16.60;99.90;;;;;;2098525;28;20052;-75
2022/08/06 03:52:42;;;;;;;2.42;2.10;;;16.60;99.90;;;;;;2092548;28;20048;-76
2022/08/06 03:53:47;;;;;;;1.92;1.83;;;16.60;99.90;;;;;;2094317;28;20605;-73
2022/08/06 03:54:51;;;;;;;2.70;1.90;;;16.60;99.90;;;;;;2088351;28;20029;-75
2022/08/06 03:55:57;;;;;;;2.33;2.00;;;16.60;99.90;;;;;;2089008;28;20044;-76
2022/08/06 03:57:11;;;;;;;3.22;1.90;;;16.60;99.90;;;;;;2097650;28;20029;-74
2022/08/06 03:58:14;;;;;;;1.90;1.70;;;16.60;99.90;;;;;;2097386;28;20034;-73
2022/08/06 03:59:17;;;;;;;2.60;1.95;;;16.60;99.90;;;;;;2097917;28;20032;-73
2022/08/06 04:00:21;;;;;;;3.90;1.90;;;16.60;99.90;;;;;;2097532;28;20037;-74
2022/08/06 04:01:25;;;;;;;2.03;1.75;;;16.60;99.90;;;;;;2098274;28;20048;-75
2022/08/06 04:02:35;;;;;;;2.95;2.00;;;16.60;99.90;;;;;;2098137;28;20085;-75
2022/08/06 04:03:37;;;;;;;2.22;2.03;;;16.50;99.90;;;;;;2089869;28;20095;-74
2022/08/06 04:04:38;;;;;;;3.55;2.20;;;16.50;99.90;;;;;;2081116;28;20028;-75
2022/08/06 04:05:41;;;;;;;3.10;1.90;;;16.50;99.90;;;;;;2089395;28;20094;-75
2022/08/06 04:06:43;;;;;;;2.55;2.10;;;16.50;99.90;;;;;;2098014;28;20063;-75
2022/08/06 04:07:44;;;;;;;3.13;2.00;;;16.50;99.90;;;;;;2097942;28;20032;-75
2022/08/06 04:08:45;;;;;;;4.43;1.80;;;16.50;99.90;;;;;;2097279;28;20033;-75
2022/08/06 04:09:46;;;;;;;2.67;1.80;;;16.50;99.90;;;;;;2097237;28;20017;-75
2022/08/06 04:10:48;;;;;;;3.00;1.80;;;16.50;99.90;;;;;;2097157;28;20035;-75
2022/08/06 04:11:49;;;;;;;3.00;1.95;;;16.40;99.90;;;;;;2097299;28;20186;-75
2022/08/06 04:12:50;;;;;;;2.22;1.70;;;16.40;99.90;;;;;;2097343;28;20032;-75
2022/08/06 04:13:53;;;;;;;2.03;1.80;;;16.30;99.90;;;;;;2097106;28;20495;-75
2022/08/06 04:14:55;;;;;;;2.00;1.90;;;16.30;99.90;;;;;;2088504;28;20021;-75
2022/08/06 04:15:56;;;;;;;3.78;1.90;;;16.40;99.90;;;;;;2081109;28;20031;-75
2022/08/06 04:16:58;;;;;;;2.63;1.90;;;16.40;99.90;;;;;;2088440;28;20491;-75
2022/08/06 04:17:59;;;;;;;2.83;1.88;;;16.40;99.90;;;;;;2097433;28;20054;-74
2022/08/06 04:19:01;;;;;;;2.60;1.60;;;16.40;99.90;;;;;;2097278;28;20029;-75
2022/08/06 04:20:08;;;;;;;2.38;1.90;;;16.40;99.90;;;;;;2101812;28;20058;-75
2022/08/06 04:21:16;;;;;;;2.05;1.67;;;16.40;99.90;;;;;;2085243;28;20691;-75
2022/08/06 04:22:26;;;;;;;2.20;1.55;;;16.40;99.90;;;;;;2070494;28;20022;-75
2022/08/06 04:23:27;;;;;;;2.47;1.90;;;16.40;99.90;;;;;;2089373;28;20108;-74
2022/08/06 04:24:28;;;;;;;2.42;1.60;;;16.30;99.90;;;;;;2094440;28;20024;-75
2022/08/06 04:25:34;;;;;;;1.50;1.40;;;16.30;99.90;;;;;;2091824;28;20110;-75
2022/08/06 04:26:40;;;;;;;2.28;1.55;;;16.30;99.90;;;;;;2090249;28;20029;-76
2022/08/06 04:27:42;;;;;;;2.00;1.60;;;16.30;99.90;;;;;;2075810;28;20101;-74
2022/08/06 04:28:46;;;;;;;1.92;1.50;;;16.30;99.90;;;;;;2072685;28;20105;-76
2022/08/06 04:29:48;;;;;;;3.55;1.50;;;16.30;99.90;;;;;;2092484;28;20042;-75
2022/08/06 04:30:50;;;;;;;1.77;1.60;;;16.30;99.90;;;;;;2097346;28;20024;-74
2022/08/06 04:31:52;;;;;;;2.13;1.50;;;16.30;99.90;;;;;;2097192;28;20153;-74
2022/08/06 04:32:53;;;;;;;1.67;1.50;;;16.30;99.90;;;;;;2088208;28;20431;-74
2022/08/06 04:33:55;;;;;;;1.75;1.60;;;16.30;99.90;;;;;;2079970;28;20028;-75
2022/08/06 04:34:57;;;;;;;2.33;2.03;;;16.30;99.90;;;;;;2088613;28;20407;-75
2022/08/06 04:36:05;;;;;;;1.50;1.30;;;16.30;99.90;;;;;;2097787;28;20622;-74
2022/08/06 04:37:05;;;;;;;2.38;1.50;;;16.20;99.90;;;;;;2088591;28;20032;-75
2022/08/06 04:38:07;;;;;;;2.17;1.40;;;16.10;99.90;;;;;;2080153;28;20018;-75
2022/08/06 04:39:08;;;;;;;2.13;1.40;;;16.10;99.90;;;;;;2088262;28;20122;-74
2022/08/06 04:40:10;;;;;;;2.03;1.52;;;16.10;99.90;;;;;;2088316;28;20037;-75
2022/08/06 04:41:12;;;;;;;2.75;1.60;;;16.10;99.90;;;;;;2080199;28;20032;-75
2022/08/06 04:42:13;;;;;;;2.15;1.70;;;16.10;99.90;;;;;;2088476;28;20047;-76
2022/08/06 04:43:14;;;;;;;2.33;1.52;;;16.10;99.90;;;;;;2097341;28;20021;-76
2022/08/06 04:44:16;;;;;;;1.63;1.35;;;16.10;99.90;;;;;;2096974;28;20056;-76
2022/08/06 04:45:17;;;;;;;2.08;1.30;;;16.10;99.90;;;;;;2088396;28;20039;-75
2022/08/06 04:46:19;;;;;;;2.15;1.30;;;16.20;99.90;;;;;;2080233;28;20553;-75
2022/08/06 04:47:20;;;;;;;2.20;1.27;;;16.20;99.90;;;;;;2088319;28;20036;-75
2022/08/06 04:48:21;;;;;;;1.83;1.20;;;16.20;99.90;;;;;;2098864;28;20032;-77
2022/08/06 04:49:22;;;;;;;3.47;1.45;;;16.20;99.90;;;;;;2097265;28;20024;-74
2022/08/06 04:50:26;;;;;;;2.90;1.38;;;16.30;99.90;;;;;;2101482;28;20028;-76
2022/08/06 04:51:34;;;;;;;3.92;1.40;;;16.30;99.90;;;;;;2102220;28;20032;-76
2022/08/06 04:52:46;;;;;;;1.35;1.23;;;16.40;99.90;;;;;;2094077;28;20031;-76
2022/08/06 04:53:49;;;;;;;1.80;1.52;;;16.40;99.90;;;;;;2078414;28;20026;-76
2022/08/06 04:54:50;;;;;;;2.70;1.35;;;16.30;99.90;;;;;;2084900;28;20033;-74
2022/08/06 04:55:51;;;;;;;3.00;1.67;;;16.40;99.90;;;;;;2091949;28;20060;-76
2022/08/06 04:56:52;;;;;;;2.83;1.70;;;16.40;99.90;;;;;;2098621;28;20604;-75
2022/08/06 04:57:52;;;;;;;1.92;1.40;;;16.40;99.90;;;;;;2097314;28;20020;-74
2022/08/06 04:58:53;;;;;;;2.50;1.52;;;16.50;99.90;;;;;;2098039;28;20781;-75
2022/08/06 04:59:54;;;;;;;2.65;1.40;;;16.50;99.90;;;;;;2097269;28;20020;-75
2022/08/06 05:00:54;;;;;;;4.05;1.58;;;16.60;99.90;;;;;;2099737;28;20020;-76
2022/08/06 05:01:55;;;;;;;2.17;1.30;;;16.60;99.90;;;;;;2089981;28;20600;-76
2022/08/06 05:02:56;;;;;;;2.15;1.20;;;16.60;99.90;;;;;;2089224;28;20439;-75
2022/08/06 05:03:57;;;;;;;3.17;1.15;;;16.60;99.90;;;;;;2100525;28;20080;-76
2022/08/06 05:04:58;;;;;;;3.53;1.40;;;16.80;99.90;;;;;;2097530;28;20021;-76
2022/08/06 05:06:20;;;;;;;1.27;1.17;;;17.00;99.90;;;;;;2098182;28;20665;-76
2022/08/06 05:07:29;;;;;;;2.05;1.30;;;17.40;99.90;;;;;;2105001;28;20038;-76
2022/08/06 05:08:33;;;;;;;2.20;1.38;;;17.60;99.90;;;;;;2105797;28;20039;-75
2022/08/06 05:09:33;;;;;;;2.35;1.35;;;18.00;99.90;;;;;;2101784;28;20043;-76
2022/08/06 05:10:46;;;;;;;1.60;1.20;;;18.30;99.90;;;;;;2089579;28;20155;-76
2022/08/06 05:12:15;;;;;;;3.03;1.35;;;18.70;99.90;;;;;;2090636;28;20025;-75
2022/08/06 05:13:18;;;;;;;1.30;1.17;;;19.00;99.90;;;;;;2097361;28;20071;-76
2022/08/06 05:14:26;;;;;;;2.10;1.10;;;19.30;99.90;;;;;;2097080;28;20029;-75
2022/08/06 05:15:34;;;;;;;0.98;0.90;;;19.30;99.90;;;;;;2097232;28;20024;-75
2022/08/06 05:16:39;;;;;;;4.22;1.00;;;19.50;99.90;;;;;;2097407;28;20043;-75
2022/08/06 05:17:48;;;;;;;1.92;0.90;;;19.50;99.80;;;;;;2097227;28;20035;-75
2022/08/06 05:18:52;;;;;;;3.13;0.88;;;19.80;99.30;;;;;;2080335;28;20036;-75
2022/08/06 05:20:01;;;;;;;1.52;0.90;;;20.10;98.20;;;;;;2081125;28;20033;-75
2022/08/06 05:21:03;;;;;;;2.53;1.10;;;20.40;96.90;;;;;;2098141;28;20623;-75
2022/08/06 05:22:08;;;;;;;1.70;1.02;;;20.60;96.10;;;;;;2097327;28;20033;-75
2022/08/06 05:23:21;;;;;;;1.15;0.90;;;20.90;95.70;;;;;;2097236;28;20016;-74
2022/08/06 05:24:22;;;;;;;2.42;1.10;;;21.30;94.80;;;;;;2096761;28;20029;-74
2022/08/06 05:25:23;;;;;;;2.45;1.00;;;21.50;93.20;;;;;;2097053;28;20039;-75
2022/08/06 05:26:24;;;;;;;2.38;0.90;;;21.50;92.30;;;;;;2097279;28;20023;-75
2022/08/06 05:27:25;;;;;;;1.42;0.90;;;21.70;91.40;;;;;;2097623;28;20063;-75
2022/08/06 05:28:26;;;;;;;1.40;0.90;;;21.70;90.20;;;;;;2096712;28;20023;-76
2022/08/06 05:29:27;;;;;;;1.85;0.90;;;21.80;88.80;;;;;;2097204;28;20059;-76
2022/08/06 05:30:28;;;;;;;2.03;0.90;;;21.80;87.60;;;;;;2096991;28;20033;-76
2022/08/06 05:31:37;;;;;;;0.95;0.90;;;21.70;87.30;;;;;;2096876;28;20035;-75
2022/08/06 05:32:45;;;;;;;1.30;0.80;;;21.80;87.30;;;;;;2088804;28;20583;-76
2022/08/06 05:33:46;;;;;;;1.17;0.77;;;21.90;86.20;;;;;;2091312;28;20029;-77
2022/08/06 05:34:47;;;;;;;1.13;0.90;;;21.90;85.40;;;;;;2088935;28;20037;-75
2022/08/06 05:35:48;;;;;;;1.40;0.90;;;21.80;85.20;;;;;;2087854;28;20025;-76
2022/08/06 05:36:48;;;;;;;2.25;1.00;;;21.60;85.80;;;;;;2096717;28;20016;-75
2022/08/06 05:37:49;;;;;;;2.10;0.85;;;21.70;85.30;;;;;;2097055;28;20466;-75
2022/08/06 05:38:49;;;;;;;2.92;0.80;;;21.50;85.00;;;;;;2097930;28;20032;-75